METAR Data
IDs: Format: Raw Decoded Include TAF

Data at: 2103 UTC 08 Aug 2020

METAR for:LEBZ (Badajoz Arpt, --, SP)
Text:LEBZ 081900Z 28007KT CAVOK 34/15 Q1014
Temperature: 34.0°C ( 93°F)
Dewpoint: 15.0°C ( 59°F) [RH = 32%]
Pressure (altimeter):29.94 inches Hg (1014.0 mb)
Winds:from the W (280 degrees) at 8 MPH (7 knots; 3.6 m/s)
Visibility:6 or more sm (10+ km)
Ceiling:ceiling and visibility are OK
Clouds:unknown

TAF for:LEBZ (Badajoz Arpt, --, SP) issued at 1700 UTC 08 Aug 2020
Text:TAF LEBZ 081700Z 0818/0918 26007KT CAVOK TX38/0916Z TN21/0906Z
Forecast period:1800 UTC 08 August 2020 to 1800 UTC 09 August 2020
Forecast type:FROM: standard forecast or significant change
Winds:from the W (260 degrees) at 8 MPH (7 knots; 3.6 m/s)
Visibility:6 or more sm (10+ km)
Clouds:missing